Cropsey, Illinois
Current Conditions -  °F | °C
As of 6:55 AM on Saturday 20 Dec 2014 (Local Time) from KPNT Reporting Station
Haze Haze  
Wind Chill: 28°   Ceiling: 7500
Heat Index: 28°   Visibility: 5mi
Dew Point: 26°   Wind: 0mph
Humidity: 96%   Direction: NA
Pressure: 30.29"   Gusts: NA
Location:  40.61°N, 88.48°W
Report Text: KPNT 201255Z AUTO 00000KT 5SM BR OVC075 M02/M03 A3029 RMK AO2 T10251031
Loading
Personal Weather Stations






























Interactive Weather Map New forecast layout! Learn more

10-Day Weather Forecast

Advertisements
Track Severe Weather on mobile